Time;durP1;ratioP1;P1;durP2;ratioP2;P2;SDS_P1;SDS_P2;PMS_P1;PMS_P2;Temp;Humidity;BMP_temperature;BMP_pressure;BME280_temperature;BME280_humidity;BME280_pressure;Samples;Min_cycle;Max_cycle;Signal;HPM_P1;HPM_P2
2023/03/02 00:00:33;;;;;;;;;;;4.00;99.90;;;;;;5058682;28;1979;-68
2023/03/02 00:02:59;;;;;;;;;;;4.00;99.90;;;;;;5060127;28;1298;-68
2023/03/02 00:05:24;;;;;;;;;;;4.00;99.90;;;;;;5058816;28;1283;-68
2023/03/02 00:07:50;;;;;;;;;;;4.00;99.90;;;;;;5063876;28;1323;-68
2023/03/02 00:10:16;;;;;;;;;;;4.00;99.90;;;;;;5059796;28;1394;-68
2023/03/02 00:12:41;;;;;;;;;;;4.00;99.90;;;;;;5050086;28;1133;-68
2023/03/02 00:15:07;;;;;;;;;;;4.10;99.90;;;;;;5056147;28;1374;-68
2023/03/02 00:17:33;;;;;;;;;;;4.10;99.90;;;;;;5061394;28;1438;-68
2023/03/02 00:20:10;;;;;;;;;;;4.00;99.90;;;;;;5069761;28;1906;-68
2023/03/02 00:22:36;;;;;;;;;;;4.00;99.90;;;;;;5046957;28;1358;-68
2023/03/02 00:25:03;;;;;;;;;;;4.00;99.90;;;;;;5049606;28;1153;-68
2023/03/02 00:27:29;;;;;;;;;;;4.00;99.90;;;;;;5055177;28;1304;-68
2023/03/02 00:29:55;;;;;;;;;;;4.00;99.90;;;;;;5031943;28;1617;-68
2023/03/02 00:32:21;;;;;;;;;;;4.00;99.90;;;;;;5049018;28;1191;-68
2023/03/02 00:34:46;;;;;;;;;;;4.00;99.90;;;;;;5056845;28;1501;-68
2023/03/02 00:37:12;;;;;;;;;;;4.00;99.90;;;;;;5037009;28;1796;-68
2023/03/02 00:39:38;;;;;;;;;;;4.00;99.90;;;;;;5057818;28;1918;-67
2023/03/02 00:42:03;;;;;;;;;;;4.00;99.90;;;;;;5053630;28;1152;-68
2023/03/02 00:44:29;;;;;;;;;;;4.00;99.90;;;;;;5050119;28;1143;-68
2023/03/02 00:46:55;;;;;;;;;;;4.00;99.90;;;;;;5043307;28;1160;-68
2023/03/02 00:49:20;;;;;;;;;;;4.10;99.90;;;;;;5033951;28;1335;-68
2023/03/02 00:51:46;;;;;;;;;;;4.10;99.90;;;;;;5031450;28;1196;-68
2023/03/02 00:54:12;;;;;;;;;;;4.10;99.90;;;;;;5055776;28;1064;-68
2023/03/02 00:56:37;;;;;;;;;;;4.10;99.90;;;;;;5049182;28;1113;-68
2023/03/02 00:59:05;;;;;;;;;;;4.10;99.90;;;;;;5049310;28;1906;-68
2023/03/02 01:01:32;;;;;;;;;;;4.20;99.90;;;;;;5048510;28;1096;-68
2023/03/02 01:03:57;;;;;;;;;;;4.20;99.90;;;;;;5068883;28;1105;-68
2023/03/02 01:06:23;;;;;;;;;;;4.20;99.90;;;;;;5048409;28;1125;-68
2023/03/02 01:08:49;;;;;;;;;;;4.20;99.90;;;;;;5030777;28;1812;-67
2023/03/02 01:11:16;;;;;;;;;;;4.20;99.90;;;;;;5033373;28;1196;-68
2023/03/02 01:13:42;;;;;;;;;;;4.20;99.90;;;;;;5068788;28;1108;-68
2023/03/02 01:16:07;;;;;;;;;;;4.20;99.90;;;;;;5041759;28;1465;-67
2023/03/02 01:18:37;;;;;;;;;;;4.20;99.90;;;;;;5049011;28;1193;-67
2023/03/02 01:21:04;;;;;;;;;;;4.20;99.90;;;;;;5050311;28;1914;-68
2023/03/02 01:23:30;;;;;;;;;;;4.20;99.90;;;;;;5050070;28;1041;-68
2023/03/02 01:25:56;;;;;;;;;;;4.20;99.90;;;;;;5041076;28;1243;-68
2023/03/02 01:28:21;;;;;;;;;;;4.10;99.90;;;;;;5058341;28;1234;-67
2023/03/02 01:30:47;;;;;;;;;;;4.10;99.90;;;;;;5040958;28;1286;-67
2023/03/02 01:33:13;;;;;;;;;;;4.20;99.90;;;;;;5039199;28;1207;-67
2023/03/02 01:35:39;;;;;;;;;;;4.20;99.90;;;;;;5056986;28;1326;-67
2023/03/02 01:38:05;;;;;;;;;;;4.20;99.90;;;;;;5035009;28;1186;-67
2023/03/02 01:40:30;;;;;;;;;;;4.30;99.90;;;;;;5062402;28;1927;-68
2023/03/02 01:43:01;;;;;;;;;;;4.20;99.90;;;;;;5048199;28;1105;-67
2023/03/02 01:45:42;;;;;;;;;;;4.20;99.90;;;;;;5048705;28;1185;-67
2023/03/02 01:48:09;;;;;;;;;;;4.20;99.90;;;;;;5073600;28;1321;-67
2023/03/02 01:50:35;;;;;;;;;;;4.10;99.90;;;;;;5050728;28;1289;-67
2023/03/02 01:53:01;;;;;;;;;;;4.10;99.90;;;;;;5041005;28;1360;-67
2023/03/02 01:55:30;;;;;;;;;;;4.10;99.90;;;;;;5057527;28;1133;-67
2023/03/02 01:57:56;;;;;;;;;;;4.10;99.90;;;;;;5037708;28;1080;-67
2023/03/02 02:00:26;;;;;;;;;;;4.00;99.90;;;;;;5030528;28;1985;-67
2023/03/02 02:02:53;;;;;;;;;;;3.90;99.90;;;;;;5030155;28;1093;-68
2023/03/02 02:05:24;;;;;;;;;;;3.90;99.90;;;;;;5061395;28;1178;-67
2023/03/02 02:07:49;;;;;;;;;;;3.90;99.90;;;;;;5030923;28;1148;-68
2023/03/02 02:10:16;;;;;;;;;;;3.90;99.90;;;;;;5029784;28;1040;-67
2023/03/02 02:12:42;;;;;;;;;;;3.90;99.90;;;;;;5055626;28;1440;-68
2023/03/02 02:15:08;;;;;;;;;;;3.90;99.90;;;;;;5053696;28;1141;-68
2023/03/02 02:17:33;;;;;;;;;;;3.90;99.90;;;;;;5058191;28;1367;-67
2023/03/02 02:20:06;;;;;;;;;;;3.90;99.90;;;;;;5034736;28;1964;-67
2023/03/02 02:22:31;;;;;;;;;;;3.90;99.90;;;;;;5052991;28;1201;-67
2023/03/02 02:25:01;;;;;;;;;;;3.90;99.90;;;;;;5051472;28;1176;-68
2023/03/02 02:27:28;;;;;;;;;;;3.90;99.90;;;;;;5034316;28;1132;-67
2023/03/02 02:29:57;;;;;;;;;;;3.80;99.90;;;;;;5044148;28;1352;-68
2023/03/02 02:32:25;;;;;;;;;;;3.80;99.90;;;;;;5053299;28;1002;-67
2023/03/02 02:34:59;;;;;;;;;;;3.80;99.90;;;;;;5072071;28;1179;-67
2023/03/02 02:37:29;;;;;;;;;;;3.80;99.90;;;;;;5072064;28;1176;-67
2023/03/02 02:39:56;;;;;;;;;;;3.80;99.90;;;;;;5052103;28;1934;-67
2023/03/02 02:42:29;;;;;;;;;;;3.80;99.90;;;;;;5071842;28;1163;-67
2023/03/02 02:44:56;;;;;;;;;;;3.80;99.90;;;;;;5072028;28;1112;-67
2023/03/02 02:47:22;;;;;;;;;;;3.80;99.90;;;;;;5071750;28;1116;-67
2023/03/02 02:49:50;;;;;;;;;;;3.80;99.90;;;;;;5050882;28;1328;-67
2023/03/02 02:52:18;;;;;;;;;;;3.80;99.90;;;;;;5053308;28;1084;-67
2023/03/02 02:54:48;;;;;;;;;;;3.80;99.90;;;;;;5071235;28;1104;-67
2023/03/02 02:57:16;;;;;;;;;;;3.80;99.90;;;;;;5049715;28;1118;-67
2023/03/02 02:59:45;;;;;;;;;;;3.80;99.90;;;;;;5041999;28;2009;-67
2023/03/02 03:02:15;;;;;;;;;;;3.70;99.90;;;;;;5042853;28;1470;-67
2023/03/02 03:04:42;;;;;;;;;;;3.60;99.90;;;;;;5040336;28;1239;-67
2023/03/02 03:07:09;;;;;;;;;;;3.60;99.90;;;;;;5041215;28;1086;-67
2023/03/02 03:09:36;;;;;;;;;;;3.50;99.90;;;;;;5060991;28;1215;-67
2023/03/02 03:12:07;;;;;;;;;;;3.50;99.90;;;;;;5061103;28;1238;-67
2023/03/02 03:14:33;;;;;;;;;;;3.50;99.90;;;;;;5042055;28;1212;-67
2023/03/02 03:16:59;;;;;;;;;;;3.50;99.90;;;;;;5043979;28;1383;-67
2023/03/02 03:19:28;;;;;;;;;;;3.40;99.90;;;;;;5059455;28;1929;-68
2023/03/02 03:21:57;;;;;;;;;;;3.40;99.90;;;;;;5035874;28;1106;-67
2023/03/02 03:24:24;;;;;;;;;;;3.40;99.90;;;;;;5038399;28;1125;-68
2023/03/02 03:26:53;;;;;;;;;;;3.50;99.90;;;;;;5053303;28;1133;-68
2023/03/02 03:29:22;;;;;;;;;;;3.50;99.90;;;;;;5027925;28;1415;-68
2023/03/02 03:31:50;;;;;;;;;;;3.50;99.90;;;;;;5019340;28;1288;-67
2023/03/02 03:34:15;;;;;;;;;;;3.50;99.90;;;;;;5033918;28;1199;-68
2023/03/02 03:36:42;;;;;;;;;;;3.50;99.90;;;;;;5051015;28;1252;-68
2023/03/02 03:39:09;;;;;;;;;;;3.50;99.90;;;;;;5055436;28;1979;-67
2023/03/02 03:41:36;;;;;;;;;;;3.50;99.90;;;;;;5050989;28;1066;-67
2023/03/02 03:44:02;;;;;;;;;;;3.50;99.90;;;;;;5070637;28;1095;-67
2023/03/02 03:46:31;;;;;;;;;;;3.50;99.90;;;;;;5057699;28;1104;-67
2023/03/02 03:48:57;;;;;;;;;;;3.50;99.90;;;;;;5033184;28;1372;-67
2023/03/02 03:51:23;;;;;;;;;;;3.50;99.90;;;;;;5039214;28;1138;-67
2023/03/02 03:53:58;;;;;;;;;;;3.40;99.90;;;;;;5015795;28;1094;-67
2023/03/02 03:56:26;;;;;;;;;;;3.40;99.90;;;;;;5015358;28;1102;-67
2023/03/02 03:59:04;;;;;;;;;;;3.50;99.90;;;;;;5057676;28;1114;-67
2023/03/02 04:01:33;;;;;;;;;;;3.50;99.90;;;;;;5036312;28;1338;-67
2023/03/02 04:04:01;;;;;;;;;;;3.50;99.90;;;;;;5031797;28;1143;-67
2023/03/02 04:06:27;;;;;;;;;;;3.50;99.90;;;;;;5050745;28;1096;-67
2023/03/02 04:08:52;;;;;;;;;;;3.50;99.90;;;;;;5067634;28;1612;-67
2023/03/02 04:11:18;;;;;;;;;;;3.50;99.90;;;;;;5051946;28;1026;-67
2023/03/02 04:13:44;;;;;;;;;;;3.50;99.90;;;;;;5047981;28;1358;-67
2023/03/02 04:16:10;;;;;;;;;;;3.50;99.90;;;;;;5050173;28;1336;-67
2023/03/02 04:18:36;;;;;;;;;;;3.50;99.90;;;;;;5049544;28;1113;-67
2023/03/02 04:21:02;;;;;;;;;;;3.50;99.90;;;;;;5050217;28;1964;-67
2023/03/02 04:23:28;;;;;;;;;;;3.50;99.90;;;;;;5049098;28;1112;-67
2023/03/02 04:25:54;;;;;;;;;;;3.40;99.90;;;;;;5034509;28;1078;-67
2023/03/02 04:28:21;;;;;;;;;;;3.40;99.90;;;;;;5051725;28;1104;-67
2023/03/02 04:30:47;;;;;;;;;;;3.40;99.90;;;;;;5033923;28;1317;-67
2023/03/02 04:33:13;;;;;;;;;;;3.40;99.90;;;;;;5049872;28;1160;-67
2023/03/02 04:35:39;;;;;;;;;;;3.40;99.90;;;;;;5051658;28;1202;-67
2023/03/02 04:38:04;;;;;;;;;;;3.40;99.90;;;;;;5031219;28;1144;-67
2023/03/02 04:40:30;;;;;;;;;;;3.40;99.90;;;;;;5033843;28;1910;-67
2023/03/02 04:42:56;;;;;;;;;;;3.40;99.90;;;;;;5065909;28;1200;-68
2023/03/02 04:45:22;;;;;;;;;;;3.40;99.90;;;;;;5051190;28;1520;-67
2023/03/02 04:47:47;;;;;;;;;;;3.40;99.90;;;;;;5043938;28;1828;-68
2023/03/02 04:50:13;;;;;;;;;;;3.30;99.90;;;;;;5060902;28;1509;-68
2023/03/02 04:52:39;;;;;;;;;;;3.30;99.90;;;;;;5051956;28;1119;-67
2023/03/02 04:55:05;;;;;;;;;;;3.20;99.90;;;;;;5049460;28;1141;-67
2023/03/02 04:57:31;;;;;;;;;;;3.30;99.90;;;;;;5060616;28;1135;-67
2023/03/02 04:59:57;;;;;;;;;;;3.20;99.90;;;;;;5052087;28;1973;-67
2023/03/02 05:02:23;;;;;;;;;;;3.20;99.90;;;;;;5059790;28;1092;-68
2023/03/02 05:04:49;;;;;;;;;;;3.10;99.90;;;;;;5052569;28;1363;-67
2023/03/02 05:07:14;;;;;;;;;;;3.10;99.90;;;;;;5059469;28;1129;-68
2023/03/02 05:09:40;;;;;;;;;;;3.10;99.90;;;;;;5053481;28;1152;-68
2023/03/02 05:12:06;;;;;;;;;;;3.10;99.90;;;;;;5049186;28;1211;-68
2023/03/02 05:14:31;;;;;;;;;;;3.10;99.90;;;;;;5030570;28;1092;-67
2023/03/02 05:16:57;;;;;;;;;;;3.10;99.90;;;;;;5031279;28;1594;-67
2023/03/02 05:19:23;;;;;;;;;;;3.00;99.90;;;;;;5059616;28;1910;-67
2023/03/02 05:21:49;;;;;;;;;;;3.00;99.90;;;;;;5048661;28;1158;-67
2023/03/02 05:24:14;;;;;;;;;;;3.00;99.90;;;;;;5048639;28;1100;-67
2023/03/02 05:26:40;;;;;;;;;;;2.80;99.90;;;;;;5058946;28;1239;-67
2023/03/02 05:29:06;;;;;;;;;;;2.70;99.90;;;;;;5068322;28;1156;-67
2023/03/02 05:31:34;;;;;;;;;;;2.60;99.90;;;;;;5068862;28;1104;-67
2023/03/02 05:34:00;;;;;;;;;;;2.40;99.90;;;;;;5050479;28;1109;-67
2023/03/02 05:36:25;;;;;;;;;;;2.30;99.90;;;;;;5059890;28;1150;-67
2023/03/02 05:38:51;;;;;;;;;;;2.20;99.90;;;;;;5052332;28;1223;-67
2023/03/02 05:41:17;;;;;;;;;;;2.10;99.90;;;;;;5059000;28;1909;-67
2023/03/02 05:43:42;;;;;;;;;;;2.20;99.90;;;;;;5048629;28;1086;-67
2023/03/02 05:46:08;;;;;;;;;;;2.20;99.90;;;;;;5059677;28;1161;-67
2023/03/02 05:48:34;;;;;;;;;;;2.20;99.90;;;;;;5068332;28;1323;-67
2023/03/02 05:51:00;;;;;;;;;;;2.20;99.90;;;;;;5053078;28;1117;-67
2023/03/02 05:53:25;;;;;;;;;;;2.20;99.90;;;;;;5055341;28;1113;-67
2023/03/02 05:55:51;;;;;;;;;;;2.30;99.90;;;;;;5054032;28;1084;-67
2023/03/02 05:58:17;;;;;;;;;;;2.30;99.90;;;;;;5072679;28;1124;-67
2023/03/02 06:00:44;;;;;;;;;;;2.30;99.90;;;;;;5063421;28;1906;-67
2023/03/02 06:03:09;;;;;;;;;;;2.30;99.90;;;;;;5059746;28;1165;-67
2023/03/02 06:05:35;;;;;;;;;;;2.30;99.90;;;;;;5052517;28;1124;-67
2023/03/02 06:08:01;;;;;;;;;;;2.30;99.90;;;;;;5052077;28;1117;-67
2023/03/02 06:10:26;;;;;;;;;;;2.30;99.90;;;;;;5051868;28;1128;-67
2023/03/02 06:12:52;;;;;;;;;;;2.30;99.90;;;;;;5054034;28;1127;-67
2023/03/02 06:15:18;;;;;;;;;;;2.30;99.90;;;;;;5034206;28;1315;-67
2023/03/02 06:17:44;;;;;;;;;;;2.30;99.90;;;;;;5051689;28;1177;-67
2023/03/02 06:20:10;;;;;;;;;;;2.30;99.90;;;;;;5057201;28;1913;-67
2023/03/02 06:22:39;;;;;;;;;;;2.20;99.90;;;;;;5053837;28;1108;-67
2023/03/02 06:25:06;;;;;;;;;;;2.20;99.90;;;;;;5053488;28;1089;-67
2023/03/02 06:27:32;;;;;;;;;;;2.20;99.90;;;;;;5054018;28;1148;-67
2023/03/02 06:29:58;;;;;;;;;;;2.40;99.90;;;;;;5061099;28;1154;-67
2023/03/02 06:32:23;;;;;;;;;;;2.30;99.90;;;;;;5051348;28;1197;-67
2023/03/02 06:34:49;;;;;;;;;;;2.30;99.90;;;;;;5052256;28;1171;-67
2023/03/02 06:37:15;;;;;;;;;;;2.30;99.90;;;;;;5061776;28;1101;-67
2023/03/02 06:39:40;;;;;;;;;;;2.30;99.90;;;;;;5061353;28;1918;-67
2023/03/02 06:42:06;;;;;;;;;;;2.30;99.90;;;;;;5056219;28;1316;-67
2023/03/02 06:44:32;;;;;;;;;;;2.30;99.90;;;;;;5063635;28;1259;-67
2023/03/02 06:46:57;;;;;;;;;;;2.30;99.90;;;;;;5063254;28;1224;-67
2023/03/02 06:49:23;;;;;;;;;;;2.30;99.90;;;;;;5066844;28;1302;-67
2023/03/02 06:51:49;;;;;;;;;;;2.30;99.90;;;;;;5070809;28;1116;-67
2023/03/02 06:54:15;;;;;;;;;;;2.30;99.90;;;;;;5071569;28;1085;-67
2023/03/02 06:56:40;;;;;;;;;;;2.30;99.90;;;;;;5068398;28;1132;-67
2023/03/02 06:59:06;;;;;;;;;;;2.30;99.90;;;;;;5041640;28;1240;-67
2023/03/02 07:01:34;;;;;;;;;;;2.30;99.90;;;;;;5051660;28;1973;-67
2023/03/02 07:04:01;;;;;;;;;;;2.40;99.90;;;;;;5052884;28;1091;-67
2023/03/02 07:06:26;;;;;;;;;;;2.40;99.90;;;;;;5054328;28;1112;-67
2023/03/02 07:08:52;;;;;;;;;;;2.40;99.90;;;;;;5051516;28;1168;-67
2023/03/02 07:11:18;;;;;;;;;;;2.40;99.90;;;;;;5017159;28;1263;-68
2023/03/02 07:13:44;;;;;;;;;;;2.50;99.90;;;;;;5059254;28;1156;-67
2023/03/02 07:16:11;;;;;;;;;;;2.50;99.90;;;;;;5065006;28;1344;-67
2023/03/02 07:18:37;;;;;;;;;;;2.50;99.90;;;;;;5071121;28;1155;-67
2023/03/02 07:21:03;;;;;;;;;;;2.50;99.90;;;;;;5070272;28;1981;-67
2023/03/02 07:23:29;;;;;;;;;;;2.50;99.90;;;;;;5063319;28;1181;-67
2023/03/02 07:25:55;;;;;;;;;;;2.50;99.90;;;;;;5062412;28;1269;-68
2023/03/02 07:28:22;;;;;;;;;;;2.50;99.90;;;;;;5059534;28;1294;-67
2023/03/02 07:30:50;;;;;;;;;;;2.50;99.90;;;;;;5058683;28;1199;-67
2023/03/02 07:33:16;;;;;;;;;;;2.50;99.90;;;;;;5060123;28;1246;-68
2023/03/02 07:35:41;;;;;;;;;;;2.50;99.90;;;;;;5038098;28;1061;-67
2023/03/02 07:38:07;;;;;;;;;;;2.60;99.90;;;;;;5062197;28;1259;-67
2023/03/02 07:40:33;;;;;;;;;;;2.60;99.90;;;;;;5047724;28;1942;-68
2023/03/02 07:42:59;;;;;;;;;;;1.60;99.90;;;;;;5050761;28;1199;-67
2023/03/02 07:45:25;;;;;;;;;;;2.70;99.90;;;;;;5050660;28;1133;-67
2023/03/02 07:47:51;;;;;;;;;;;2.80;99.90;;;;;;5062905;28;1106;-68
2023/03/02 07:50:16;;;;;;;;;;;2.90;99.90;;;;;;5066026;28;1339;-68
2023/03/02 07:52:42;;;;;;;;;;;2.90;99.90;;;;;;5070342;28;1112;-68
2023/03/02 07:55:08;;;;;;;;;;;3.00;99.90;;;;;;5065845;28;1096;-67
2023/03/02 07:57:34;;;;;;;;;;;3.10;99.90;;;;;;5060162;28;1282;-68
2023/03/02 07:59:59;;;;;;;;;;;3.20;99.90;;;;;;5057818;28;1930;-68
2023/03/02 08:02:25;;;;;;;;;;;3.40;99.90;;;;;;5059952;28;1215;-68
2023/03/02 08:04:51;;;;;;;;;;;3.50;99.90;;;;;;5059311;28;1215;-68
2023/03/02 08:07:17;;;;;;;;;;;3.60;99.90;;;;;;5052371;28;1216;-68
2023/03/02 08:09:42;;;;;;;;;;;3.70;99.90;;;;;;5055742;28;1200;-68
2023/03/02 08:12:08;;;;;;;;;;;3.80;99.90;;;;;;5059800;28;1234;-68
2023/03/02 08:14:34;;;;;;;;;;;3.80;99.90;;;;;;5042029;28;1227;-68
2023/03/02 08:17:01;;;;;;;;;;;3.90;99.90;;;;;;5043688;28;1285;-68
2023/03/02 08:19:26;;;;;;;;;;;4.00;99.90;;;;;;5070142;28;2008;-68
2023/03/02 08:21:52;;;;;;;;;;;3.90;99.90;;;;;;5069870;28;1120;-68
2023/03/02 08:24:18;;;;;;;;;;;3.90;99.90;;;;;;5066132;28;1134;-68
2023/03/02 08:26:43;;;;;;;;;;;3.90;99.90;;;;;;5032099;28;1074;-68
2023/03/02 08:29:09;;;;;;;;;;;3.90;99.90;;;;;;5062856;28;3623;-68
2023/03/02 08:31:35;;;;;;;;;;;4.00;99.90;;;;;;5061342;28;3942;-68
2023/03/02 08:34:01;;;;;;;;;;;4.10;99.90;;;;;;5064805;28;3699;-68
2023/03/02 08:36:26;;;;;;;;;;;4.20;99.90;;;;;;5051784;28;1200;-68
2023/03/02 08:38:53;;;;;;;;;;;4.40;99.90;;;;;;5051352;28;1246;-68
2023/03/02 08:41:19;;;;;;;;;;;4.40;99.90;;;;;;5059448;28;1910;-68
2023/03/02 08:43:45;;;;;;;;;;;4.50;99.90;;;;;;5055916;28;1302;-68
2023/03/02 08:46:12;;;;;;;;;;;4.50;99.90;;;;;;5057154;28;3316;-68
2023/03/02 08:48:38;;;;;;;;;;;4.50;99.90;;;;;;5055704;28;1308;-68
2023/03/02 08:51:06;;;;;;;;;;;4.60;99.90;;;;;;5031269;28;2213;-68
2023/03/02 08:53:33;;;;;;;;;;;4.60;99.90;;;;;;5049451;28;1124;-68
2023/03/02 08:55:59;;;;;;;;;;;4.50;99.90;;;;;;5054163;28;1196;-68
2023/03/02 08:58:24;;;;;;;;;;;4.40;99.90;;;;;;5051660;28;1192;-68
2023/03/02 09:00:51;;;;;;;;;;;4.40;99.90;;;;;;5062464;28;1914;-68
2023/03/02 09:03:16;;;;;;;;;;;4.50;99.90;;;;;;5069429;28;1116;-68
2023/03/02 09:05:42;;;;;;;;;;;4.60;99.90;;;;;;5068010;28;1167;-68
2023/03/02 09:08:08;;;;;;;;;;;4.80;99.90;;;;;;5059010;28;1127;-68
2023/03/02 09:10:34;;;;;;;;;;;5.00;99.90;;;;;;5069473;28;1084;-68
2023/03/02 09:13:00;;;;;;;;;;;5.10;99.90;;;;;;5065212;28;1104;-68
2023/03/02 09:15:26;;;;;;;;;;;5.20;99.90;;;;;;5057830;28;1323;-68
2023/03/02 09:17:51;;;;;;;;;;;5.20;99.90;;;;;;5038056;28;1378;-68
2023/03/02 09:20:17;;;;;;;;;;;5.20;99.90;;;;;;5056381;28;1910;-68
2023/03/02 09:22:47;;;;;;;;;;;5.20;99.90;;;;;;5055390;28;1387;-68
2023/03/02 09:25:13;;;;;;;;;;;5.20;99.90;;;;;;5064786;28;1208;-68
2023/03/02 09:27:39;;;;;;;;;;;5.20;99.90;;;;;;5067415;28;1130;-68
2023/03/02 09:30:05;;;;;;;;;;;5.10;99.90;;;;;;5046848;28;1168;-68
2023/03/02 09:32:31;;;;;;;;;;;5.00;99.90;;;;;;5055422;28;1275;-68
2023/03/02 09:34:57;;;;;;;;;;;5.10;99.90;;;;;;5061690;28;1195;-68
2023/03/02 09:37:22;;;;;;;;;;;5.10;99.90;;;;;;5051674;28;1155;-68
2023/03/02 09:39:48;;;;;;;;;;;5.30;99.90;;;;;;5059016;28;1964;-68
2023/03/02 09:42:21;;;;;;;;;;;5.30;99.90;;;;;;5050827;28;1443;-68
2023/03/02 09:44:48;;;;;;;;;;;5.50;99.90;;;;;;5050856;28;1162;-68
2023/03/02 09:47:14;;;;;;;;;;;5.70;99.90;;;;;;5051896;28;1085;-68
2023/03/02 09:49:40;;;;;;;;;;;5.90;99.90;;;;;;5037059;28;1240;-68
2023/03/02 09:52:20;;;;;;;;;;;6.10;99.90;;;;;;5056943;28;1250;-68
2023/03/02 09:54:46;;;;;;;;;;;6.20;99.90;;;;;;5054039;28;1243;-68
2023/03/02 09:57:19;;;;;;;;;;;6.20;99.90;;;;;;5053321;28;1128;-68
2023/03/02 09:59:47;;;;;;;;;;;6.20;99.90;;;;;;5038554;28;1978;-68
2023/03/02 10:02:22;;;;;;;;;;;6.10;99.90;;;;;;5037840;28;1153;-68
2023/03/02 10:04:49;;;;;;;;;;;6.00;99.90;;;;;;5049391;28;1113;-68
2023/03/02 10:07:18;;;;;;;;;;;5.80;99.90;;;;;;5058221;28;1447;-68
2023/03/02 10:09:44;;;;;;;;;;;5.70;99.90;;;;;;5060283;28;1152;-68
2023/03/02 10:12:26;;;;;;;;;;;5.50;99.90;;;;;;5057715;28;1207;-68
2023/03/02 10:14:55;;;;;;;;;;;5.50;99.90;;;;;;5030453;28;1060;-68
2023/03/02 10:17:33;;;;;;;;;;;5.40;99.90;;;;;;5054511;28;1157;-68
2023/03/02 10:20:02;;;;;;;;;;;5.50;99.90;;;;;;5058935;28;2364;-68
2023/03/02 10:22:33;;;;;;;;;;;5.40;99.90;;;;;;5057407;28;1223;-68
2023/03/02 10:25:17;;;;;;;;;;;5.30;99.90;;;;;;5057894;28;1239;-68
2023/03/02 10:27:49;;;;;;;;;;;5.30;99.90;;;;;;5057096;28;1294;-67
2023/03/02 10:30:15;;;;;;;;;;;5.40;99.90;;;;;;5054906;28;1175;-68
2023/03/02 10:32:44;;;;;;;;;;;5.50;99.90;;;;;;5048436;28;1094;-68
2023/03/02 10:35:12;;;;;;;;;;;5.50;99.90;;;;;;5052117;28;986;-68
2023/03/02 10:37:38;;;;;;;;;;;5.60;99.90;;;;;;5070245;28;1122;-68
2023/03/02 10:40:04;;;;;;;;;;;5.70;99.90;;;;;;5066244;28;1973;-67
2023/03/02 10:42:34;;;;;;;;;;;5.70;99.90;;;;;;5060730;28;1229;-68
2023/03/02 10:45:05;;;;;;;;;;;5.80;99.90;;;;;;5056139;28;1247;-68
2023/03/02 10:47:30;;;;;;;;;;;5.80;99.90;;;;;;5061486;28;1136;-68
2023/03/02 10:49:56;;;;;;;;;;;5.60;99.90;;;;;;5059808;28;1318;-67
2023/03/02 10:52:23;;;;;;;;;;;5.50;99.90;;;;;;5034240;28;1248;-68
2023/03/02 10:55:00;;;;;;;;;;;5.30;99.90;;;;;;5061504;28;1193;-67
2023/03/02 10:57:27;;;;;;;;;;;5.50;99.90;;;;;;5070823;28;1116;-68
2023/03/02 10:59:57;;;;;;;;;;;5.70;99.90;;;;;;5069082;28;1983;-68
2023/03/02 11:02:24;;;;;;;;;;;6.00;99.90;;;;;;5039387;28;1016;-68
2023/03/02 11:04:55;;;;;;;;;;;6.60;99.90;;;;;;5035951;28;1126;-68
2023/03/02 11:07:22;;;;;;;;;;;7.30;99.90;;;;;;5059745;28;3124;-68
2023/03/02 11:10:07;;;;;;;;;;;7.80;99.90;;;;;;5044404;28;3649;-68
2023/03/02 11:12:35;;;;;;;;;;;8.10;99.90;;;;;;5058081;28;1140;-68
2023/03/02 11:15:11;;;;;;;;;;;8.00;99.90;;;;;;5051127;28;1236;-68
2023/03/02 11:17:37;;;;;;;;;;;8.00;99.90;;;;;;5051126;28;1175;-68
2023/03/02 11:20:04;;;;;;;;;;;8.00;99.90;;;;;;5050657;28;1914;-68
2023/03/02 11:22:37;;;;;;;;;;;7.90;99.90;;;;;;5034842;28;1039;-68
2023/03/02 11:25:05;;;;;;;;;;;7.70;99.90;;;;;;5050736;28;1109;-68
2023/03/02 11:27:33;;;;;;;;;;;7.50;99.90;;;;;;5032413;28;1168;-68
2023/03/02 11:29:59;;;;;;;;;;;7.40;99.90;;;;;;5056657;28;1121;-68
2023/03/02 11:32:33;;;;;;;;;;;7.40;99.90;;;;;;5070858;28;1085;-68
2023/03/02 11:35:01;;;;;;;;;;;7.40;99.90;;;;;;5052889;28;1159;-68
2023/03/02 11:37:33;;;;;;;;;;;7.50;99.90;;;;;;5071039;28;1108;-68
2023/03/02 11:40:03;;;;;;;;;;;7.70;99.90;;;;;;5066497;28;1902;-67
2023/03/02 11:42:30;;;;;;;;;;;8.00;99.90;;;;;;5052083;28;1284;-68
2023/03/02 11:44:59;;;;;;;;;;;8.40;99.90;;;;;;5032095;28;1076;-68
2023/03/02 11:47:25;;;;;;;;;;;8.80;99.90;;;;;;5058439;28;1145;-68
2023/03/02 11:49:53;;;;;;;;;;;8.80;99.90;;;;;;5059065;28;1188;-68
2023/03/02 11:52:21;;;;;;;;;;;8.70;99.90;;;;;;5057879;28;1133;-68
2023/03/02 11:54:51;;;;;;;;;;;8.80;99.90;;;;;;5049644;28;1187;-68
2023/03/02 11:57:23;;;;;;;;;;;8.80;99.90;;;;;;5062358;28;1103;-68
2023/03/02 11:59:49;;;;;;;;;;;8.80;99.90;;;;;;5037513;28;1902;-68
2023/03/02 12:02:15;;;;;;;;;;;8.80;99.90;;;;;;5031759;28;989;-68
2023/03/02 12:04:41;;;;;;;;;;;9.20;99.90;;;;;;5050321;28;1085;-68
2023/03/02 12:07:17;;;;;;;;;;;9.60;99.90;;;;;;5056492;28;3270;-68
2023/03/02 12:09:43;;;;;;;;;;;9.80;99.90;;;;;;5052154;28;1036;-68
2023/03/02 12:12:24;;;;;;;;;;;9.60;99.90;;;;;;5055215;28;3065;-68
2023/03/02 12:14:51;;;;;;;;;;;9.30;99.90;;;;;;5057475;28;1210;-68
2023/03/02 12:17:19;;;;;;;;;;;9.20;99.90;;;;;;5056694;28;1744;-68
2023/03/02 12:19:45;;;;;;;;;;;9.60;99.90;;;;;;5042768;28;1909;-68
2023/03/02 12:22:13;;;;;;;;;;;10.50;99.90;;;;;;5041217;28;1220;-68
2023/03/02 12:24:40;;;;;;;;;;;11.90;99.90;;;;;;5062917;28;1201;-68
2023/03/02 12:27:12;;;;;;;;;;;12.30;99.20;;;;;;5059837;28;1129;-68
2023/03/02 12:29:40;;;;;;;;;;;13.10;98.30;;;;;;5061694;28;1218;-68
2023/03/02 12:32:12;;;;;;;;;;;14.60;95.50;;;;;;5042563;28;1331;-68
2023/03/02 12:34:41;;;;;;;;;;;15.80;90.90;;;;;;5058745;28;1026;-68
2023/03/02 12:37:16;;;;;;;;;;;16.20;87.40;;;;;;5057218;28;1109;-68
2023/03/02 12:39:45;;;;;;;;;;;17.10;84.90;;;;;;5037642;28;1888;-68
2023/03/02 12:42:29;;;;;;;;;;;18.10;77.30;;;;;;5043151;28;1224;-68
2023/03/02 12:44:59;;;;;;;;;;;19.00;73.80;;;;;;5027505;28;1002;-68
2023/03/02 12:47:28;;;;;;;;;;;20.00;70.10;;;;;;5040241;28;1140;-68
2023/03/02 12:49:55;;;;;;;;;;;21.00;65.00;;;;;;5039057;28;1264;-68
2023/03/02 12:52:21;;;;;;;;;;;21.20;60.50;;;;;;5029783;28;1124;-68
2023/03/02 12:54:57;;;;;;;;;;;20.40;60.40;;;;;;5028975;28;1105;-68
2023/03/02 12:57:23;;;;;;;;;;;19.30;61.90;;;;;;5036836;28;1129;-68
2023/03/02 12:59:50;;;;;;;;;;;19.00;62.90;;;;;;5034281;28;3156;-68
2023/03/02 13:02:18;;;;;;;;;;;19.20;62.80;;;;;;5042480;28;3339;-68
2023/03/02 13:04:50;;;;;;;;;;;19.20;63.00;;;;;;5037122;28;1300;-68
2023/03/02 13:07:18;;;;;;;;;;;18.90;64.00;;;;;;5039447;28;3055;-68
2023/03/02 13:09:47;;;;;;;;;;;19.30;62.70;;;;;;5027003;28;1222;-69
2023/03/02 13:12:13;;;;;;;;;;;19.90;61.40;;;;;;5037358;28;1176;-69
2023/03/02 13:14:40;;;;;;;;;;;20.60;61.20;;;;;;5030697;28;2195;-69
2023/03/02 13:17:05;;;;;;;;;;;21.70;60.40;;;;;;5032618;28;2253;-69
2023/03/02 13:19:31;;;;;;;;;;;22.50;61.60;;;;;;5050591;28;2096;-69
2023/03/02 13:21:58;;;;;;;;;;;22.90;54.70;;;;;;5033471;28;1864;-69
2023/03/02 13:24:25;;;;;;;;;;;23.30;54.90;;;;;;5034954;28;1219;-69
2023/03/02 13:26:59;;;;;;;;;;;23.70;52.40;;;;;;5045407;28;2132;-69
2023/03/02 13:29:26;;;;;;;;;;;23.60;51.60;;;;;;5030452;28;1182;-69
2023/03/02 13:31:52;;;;;;;;;;;23.40;52.70;;;;;;5027350;28;1133;-69
2023/03/02 13:34:22;;;;;;;;;;;23.70;51.80;;;;;;5033514;28;1804;-69
2023/03/02 13:36:48;;;;;;;;;;;23.70;51.00;;;;;;5030911;28;3273;-69
2023/03/02 13:39:19;;;;;;;;;;;23.20;51.00;;;;;;5041009;28;3139;-69
2023/03/02 13:41:53;;;;;;;;;;;22.90;51.80;;;;;;5028318;28;1985;-69
2023/03/02 13:44:20;;;;;;;;;;;22.70;52.30;;;;;;5059905;28;2642;-69
2023/03/02 13:46:46;;;;;;;;;;;22.40;51.70;;;;;;5039825;28;3659;-69
2023/03/02 13:49:12;;;;;;;;;;;22.00;52.20;;;;;;5057309;28;1300;-69
2023/03/02 13:51:40;;;;;;;;;;;21.90;52.10;;;;;;5049046;28;1862;-69
2023/03/02 13:54:18;;;;;;;;;;;21.90;52.30;;;;;;5054444;28;1223;-70
2023/03/02 13:56:44;;;;;;;;;;;22.10;52.10;;;;;;5037498;28;1193;-69
2023/03/02 13:59:11;;;;;;;;;;;22.10;52.00;;;;;;5057644;28;1258;-69
2023/03/02 14:01:37;;;;;;;;;;;21.90;52.00;;;;;;5056398;28;1910;-69
2023/03/02 14:04:03;;;;;;;;;;;22.10;52.20;;;;;;5055885;28;1235;-69
2023/03/02 14:06:30;;;;;;;;;;;22.20;52.30;;;;;;5043948;28;1169;-69
2023/03/02 14:08:55;;;;;;;;;;;22.30;51.80;;;;;;5068559;28;1151;-69
2023/03/02 14:11:21;;;;;;;;;;;22.50;51.80;;;;;;5055565;28;1124;-69
2023/03/02 14:13:51;;;;;;;;;;;22.60;51.50;;;;;;5034600;28;1112;-69
2023/03/02 14:16:16;;;;;;;;;;;22.60;51.80;;;;;;5051299;28;1343;-69
2023/03/02 14:18:45;;;;;;;;;;;22.70;51.30;;;;;;5052115;28;1099;-69
2023/03/02 14:21:12;;;;;;;;;;;22.40;50.90;;;;;;5052253;28;1906;-69
2023/03/02 14:23:40;;;;;;;;;;;22.20;51.60;;;;;;5051615;28;1128;-69
2023/03/02 14:26:17;;;;;;;;;;;22.20;51.10;;;;;;5042175;28;2142;-69
2023/03/02 14:28:43;;;;;;;;;;;22.20;51.00;;;;;;5051180;28;1148;-69
2023/03/02 14:31:09;;;;;;;;;;;22.00;51.90;;;;;;5051897;28;1172;-69
2023/03/02 14:33:35;;;;;;;;;;;21.80;52.10;;;;;;5052089;28;1092;-69
2023/03/02 14:36:01;;;;;;;;;;;21.60;52.10;;;;;;5052105;28;1272;-69
2023/03/02 14:38:28;;;;;;;;;;;21.60;52.80;;;;;;5051742;28;1152;-69
2023/03/02 14:40:54;;;;;;;;;;;21.80;52.40;;;;;;5047948;28;1981;-69